createdAt,value
2019-03-24T00:00:32.574Z,41.77
2019-03-24T00:03:01.438Z,45.60
2019-03-24T00:05:29.834Z,56.13
2019-03-24T00:07:58.203Z,72.63
2019-03-24T00:10:26.808Z,64.13
2019-03-24T00:12:56.704Z,67.33
2019-03-24T00:15:26.608Z,60.70
2019-03-24T00:17:58.096Z,66.70
2019-03-24T00:20:27.447Z,57.90
2019-03-24T00:22:55.750Z,54.37
2019-03-24T00:25:24.252Z,51.80
2019-03-24T00:27:52.724Z,56.13
2019-03-24T00:30:21.089Z,55.77
2019-03-24T00:32:52.200Z,52.40
2019-03-24T00:35:20.462Z,56.60
2019-03-24T00:37:51.558Z,52.83
2019-03-24T00:40:19.759Z,46.53
2019-03-24T00:42:48.046Z,56.43
2019-03-24T00:45:16.402Z,56.57
2019-03-24T00:47:44.637Z,53.33
2019-03-24T00:50:12.972Z,52.93
2019-03-24T00:52:41.328Z,43.43
2019-03-24T00:55:10.200Z,46.37
2019-03-24T00:57:38.544Z,35.10
2019-03-24T01:00:07.599Z,28.47
2019-03-24T01:02:35.840Z,31.07
2019-03-24T01:05:04.565Z,28.13
2019-03-24T01:07:33.772Z,37.37
2019-03-24T01:10:06.062Z,38.63
2019-03-24T01:12:34.423Z,39.60
2019-03-24T01:15:02.776Z,29.87
2019-03-24T01:17:30.969Z,33.33
2019-03-24T01:19:59.221Z,24.80
2019-03-24T01:22:27.493Z,29.57
2019-03-24T01:24:56.173Z,26.47
2019-03-24T01:27:24.548Z,30.03
2019-03-24T01:29:52.970Z,22.77
2019-03-24T01:32:25.495Z,21.87
2019-03-24T01:34:55.947Z,25.63
2019-03-24T01:37:24.451Z,20.37
2019-03-24T01:39:52.582Z,25.57
2019-03-24T01:42:20.990Z,17.77
2019-03-24T01:44:49.347Z,21.90
2019-03-24T01:47:17.626Z,22.97
2019-03-24T01:49:45.934Z,21.53
2019-03-24T01:52:14.228Z,27.53
2019-03-24T01:54:42.488Z,23.80
2019-03-24T01:57:10.850Z,26.10
2019-03-24T01:59:39.420Z,26.13
2019-03-24T02:02:07.806Z,26.27
2019-03-24T02:04:36.186Z,22.00
2019-03-24T02:07:07.512Z,27.97
2019-03-24T02:09:35.957Z,27.30
2019-03-24T02:12:04.517Z,24.17
2019-03-24T02:14:32.793Z,25.37
2019-03-24T02:17:01.107Z,26.73
2019-03-24T02:19:29.330Z,26.83
2019-03-24T02:21:57.635Z,25.73
2019-03-24T02:24:26.086Z,27.80
2019-03-24T02:26:54.310Z,25.47
2019-03-24T02:29:22.454Z,24.20
2019-03-24T02:31:50.905Z,22.30
2019-03-24T02:34:19.232Z,32.80
2019-03-24T02:36:47.919Z,27.80
2019-03-24T02:39:16.054Z,27.03
2019-03-24T02:41:44.788Z,23.80
2019-03-24T02:44:13.006Z,24.10
2019-03-24T02:46:43.826Z,25.80
2019-03-24T02:49:12.356Z,20.97
2019-03-24T02:51:40.658Z,24.57
2019-03-24T02:54:12.566Z,23.73
2019-03-24T02:56:40.996Z,22.97
2019-03-24T02:59:09.473Z,20.27
2019-03-24T03:01:37.803Z,25.07
2019-03-24T03:04:07.463Z,21.33
2019-03-24T03:06:35.746Z,22.57
2019-03-24T03:09:06.269Z,25.93
2019-03-24T03:11:34.525Z,23.20
2019-03-24T03:14:02.902Z,28.90
2019-03-24T03:16:38.374Z,26.40
2019-03-24T03:19:01.415Z,28.70
2019-03-24T03:21:29.639Z,23.83
2019-03-24T03:23:57.964Z,29.37
2019-03-24T03:26:26.535Z,28.90
2019-03-24T03:28:54.715Z,31.33
2019-03-24T03:31:24.321Z,29.40
2019-03-24T03:33:52.519Z,31.93
2019-03-24T03:36:20.700Z,29.83
2019-03-24T03:38:49.069Z,28.87
2019-03-24T03:41:17.391Z,27.63
2019-03-24T03:43:45.738Z,30.00
2019-03-24T03:46:13.936Z,33.37
2019-03-24T03:48:42.144Z,31.63
2019-03-24T03:51:10.422Z,36.07
2019-03-24T03:53:38.667Z,33.90
2019-03-24T03:56:06.994Z,33.37
2019-03-24T03:58:36.455Z,31.40
2019-03-24T04:01:04.703Z,31.73
2019-03-24T04:03:32.871Z,33.97
2019-03-24T04:06:01.054Z,33.77
2019-03-24T04:08:29.682Z,31.77
2019-03-24T04:10:57.901Z,34.80
2019-03-24T04:13:26.179Z,31.90
2019-03-24T04:15:56.592Z,32.20
2019-03-24T04:18:25.003Z,29.70
2019-03-24T04:20:53.292Z,34.17
2019-03-24T04:23:21.672Z,30.47
2019-03-24T04:25:50.002Z,35.00
2019-03-24T04:28:18.369Z,27.97
2019-03-24T04:30:46.744Z,32.27
2019-03-24T04:33:14.960Z,35.33
2019-03-24T04:35:43.447Z,35.93
2019-03-24T04:38:11.774Z,31.60
2019-03-24T04:40:40.172Z,36.03
2019-03-24T04:43:08.556Z,29.90
2019-03-24T04:45:36.960Z,34.20
2019-03-24T04:48:05.351Z,30.00
2019-03-24T04:50:33.588Z,29.50
2019-03-24T04:53:01.822Z,27.10
2019-03-24T04:55:30.118Z,29.63
2019-03-24T04:57:58.457Z,27.00
2019-03-24T05:00:35.025Z,25.23
2019-03-24T05:03:03.416Z,27.70
2019-03-24T05:05:31.717Z,27.73
2019-03-24T05:08:00.319Z,25.30
2019-03-24T05:10:28.808Z,26.43
2019-03-24T05:12:57.168Z,21.73
2019-03-24T05:15:25.478Z,25.50
2019-03-24T05:17:53.780Z,24.90
2019-03-24T05:20:22.236Z,27.70
2019-03-24T05:22:50.518Z,23.93
2019-03-24T05:25:18.780Z,27.87
2019-03-24T05:27:48.369Z,22.23
2019-03-24T05:30:16.541Z,26.50
2019-03-24T05:32:44.812Z,26.97
2019-03-24T05:35:13.262Z,20.50
2019-03-24T05:37:41.448Z,25.30
2019-03-24T05:40:10.011Z,23.83
2019-03-24T05:42:40.444Z,26.27
2019-03-24T05:45:09.030Z,28.57
2019-03-24T05:47:37.664Z,29.17
2019-03-24T05:50:08.590Z,32.53
2019-03-24T05:52:36.961Z,31.43
2019-03-24T05:55:05.686Z,32.23
2019-03-24T05:57:36.349Z,31.23
2019-03-24T06:00:05.410Z,31.90
2019-03-24T06:02:33.703Z,28.47
2019-03-24T06:05:02.288Z,29.10
2019-03-24T06:07:30.622Z,32.07
2019-03-24T06:09:58.894Z,25.93
2019-03-24T06:12:27.335Z,30.20
2019-03-24T06:14:55.536Z,26.30
2019-03-24T06:17:23.995Z,24.33
2019-03-24T06:19:52.382Z,25.07
2019-03-24T06:22:22.326Z,18.63
2019-03-24T06:24:50.661Z,23.10
2019-03-24T06:27:18.949Z,20.87
2019-03-24T06:29:47.490Z,22.37
2019-03-24T06:32:15.836Z,22.50
2019-03-24T06:34:43.978Z,16.10
2019-03-24T06:37:12.376Z,23.13
2019-03-24T06:39:40.837Z,22.33
2019-03-24T06:42:09.087Z,20.43
2019-03-24T06:44:37.370Z,17.43
2019-03-24T06:47:06.682Z,19.83
2019-03-24T06:49:35.708Z,21.77
2019-03-24T06:52:04.081Z,16.90
2019-03-24T06:54:32.614Z,16.93
2019-03-24T06:57:00.938Z,23.57
2019-03-24T06:59:29.099Z,20.53
2019-03-24T07:02:00.492Z,20.67
2019-03-24T07:04:28.848Z,17.87
2019-03-24T07:06:57.068Z,21.40
2019-03-24T07:09:25.538Z,19.20
2019-03-24T07:11:53.850Z,27.87
2019-03-24T07:14:25.950Z,21.47
2019-03-24T07:16:54.348Z,17.30
2019-03-24T07:19:24.785Z,20.23
2019-03-24T07:21:54.202Z,18.40
2019-03-24T07:24:22.485Z,19.53
2019-03-24T07:26:50.871Z,21.73
2019-03-24T07:29:19.208Z,19.13
2019-03-24T07:31:47.546Z,24.37
2019-03-24T07:34:16.136Z,23.13
2019-03-24T07:36:44.523Z,20.37
2019-03-24T07:39:12.833Z,21.93
2019-03-24T07:41:41.062Z,22.83
2019-03-24T07:44:09.285Z,20.80
2019-03-24T07:46:37.502Z,22.20
2019-03-24T07:49:05.999Z,21.87
2019-03-24T07:51:34.246Z,20.87
2019-03-24T07:54:02.526Z,24.60
2019-03-24T07:56:30.975Z,23.33
2019-03-24T07:58:59.280Z,23.07
2019-03-24T08:01:27.709Z,19.53
2019-03-24T08:03:55.876Z,22.33
2019-03-24T08:06:24.070Z,21.53
2019-03-24T08:08:52.533Z,23.43
2019-03-24T08:11:20.807Z,19.60
2019-03-24T08:13:53.931Z,22.73
2019-03-24T08:16:19.577Z,22.90
2019-03-24T08:18:48.025Z,24.17
2019-03-24T08:21:16.297Z,23.87
2019-03-24T08:23:44.584Z,23.07
2019-03-24T08:26:15.439Z,23.43
2019-03-24T08:28:43.649Z,17.83
2019-03-24T08:31:12.138Z,18.73
2019-03-24T08:33:40.931Z,20.33
2019-03-24T08:36:09.402Z,20.33
2019-03-24T08:38:37.846Z,20.93
2019-03-24T08:41:06.135Z,20.07
2019-03-24T08:43:34.622Z,20.13
2019-03-24T08:46:03.088Z,21.33
2019-03-24T08:48:40.419Z,16.43
2019-03-24T08:51:01.568Z,15.87
2019-03-24T08:53:29.850Z,19.90
2019-03-24T08:55:58.163Z,15.90
2019-03-24T08:58:29.666Z,16.23
2019-03-24T09:00:57.887Z,19.77
2019-03-24T09:03:26.104Z,19.53
2019-03-24T09:05:54.527Z,21.70
2019-03-24T09:08:22.777Z,14.90
2019-03-24T09:10:51.811Z,16.83
2019-03-24T09:13:20.054Z,17.87
2019-03-24T09:15:48.224Z,16.77
2019-03-24T09:18:16.680Z,16.83
2019-03-24T09:20:44.929Z,14.57
2019-03-24T09:23:13.130Z,18.17
2019-03-24T09:25:41.341Z,17.87
2019-03-24T09:28:09.510Z,16.83
2019-03-24T09:30:38.325Z,14.30
2019-03-24T09:33:06.668Z,16.00
2019-03-24T09:35:35.156Z,17.70
2019-03-24T09:38:03.515Z,16.97
2019-03-24T09:40:32.810Z,18.77
2019-03-24T09:43:02.091Z,16.33
2019-03-24T09:45:31.184Z,16.87
2019-03-24T09:47:59.674Z,16.03
2019-03-24T09:50:27.995Z,18.03
2019-03-24T09:52:56.256Z,17.53
2019-03-24T09:55:24.470Z,16.87
2019-03-24T09:57:52.730Z,20.27
2019-03-24T10:00:20.935Z,16.07
2019-03-24T10:02:49.480Z,15.53
2019-03-24T10:05:17.786Z,13.67
2019-03-24T10:07:47.692Z,13.43
2019-03-24T10:10:16.020Z,15.20
2019-03-24T10:12:44.388Z,13.70
2019-03-24T10:15:13.997Z,14.10
2019-03-24T10:17:42.264Z,15.17
2019-03-24T10:20:11.166Z,14.47
2019-03-24T10:22:39.464Z,14.23
2019-03-24T10:25:07.915Z,11.20
2019-03-24T10:27:36.405Z,15.97
2019-03-24T10:30:11.047Z,15.80
2019-03-24T10:32:39.330Z,13.97
2019-03-24T10:35:07.774Z,10.30
2019-03-24T10:37:36.328Z,11.80
2019-03-24T10:40:06.490Z,15.10
2019-03-24T10:42:34.731Z,12.83
2019-03-24T10:45:02.945Z,11.90
2019-03-24T10:47:31.198Z,11.17
2019-03-24T10:49:59.378Z,12.70
2019-03-24T10:52:27.717Z,12.00
2019-03-24T10:54:55.956Z,10.97
2019-03-24T10:57:24.285Z,11.93
2019-03-24T10:59:53.472Z,10.10
2019-03-24T11:02:21.917Z,11.13
2019-03-24T11:04:50.234Z,11.37
2019-03-24T11:07:18.589Z,11.27
2019-03-24T11:09:47.080Z,12.43
2019-03-24T11:12:15.449Z,9.90
2019-03-24T11:14:43.800Z,11.70
2019-03-24T11:17:12.024Z,12.40
2019-03-24T11:19:40.582Z,8.93
2019-03-24T11:22:09.121Z,8.70
2019-03-24T11:24:41.456Z,14.70
2019-03-24T11:27:09.810Z,10.13
2019-03-24T11:29:38.090Z,9.23
2019-03-24T11:32:07.316Z,11.67
2019-03-24T11:34:35.844Z,12.00
2019-03-24T11:37:04.446Z,8.67
2019-03-24T11:39:32.699Z,12.53
2019-03-24T11:42:01.030Z,9.67
2019-03-24T11:44:34.713Z,9.93
2019-03-24T11:47:01.184Z,11.37
2019-03-24T11:49:29.546Z,10.43
2019-03-24T11:51:57.788Z,15.23
2019-03-24T11:54:26.310Z,11.23
2019-03-24T11:56:54.733Z,11.33
2019-03-24T11:59:23.211Z,11.87
2019-03-24T12:01:53.682Z,12.27
2019-03-24T12:04:21.801Z,9.53
2019-03-24T12:06:50.208Z,10.07
2019-03-24T12:09:18.618Z,13.97
2019-03-24T12:11:47.025Z,10.20
2019-03-24T12:14:15.192Z,13.50
2019-03-24T12:16:43.684Z,9.00
2019-03-24T12:19:12.066Z,11.30
2019-03-24T12:21:41.009Z,11.97
2019-03-24T12:24:10.221Z,11.97
2019-03-24T12:26:38.806Z,11.00
2019-03-24T12:29:07.300Z,8.10
2019-03-24T12:31:35.651Z,8.47
2019-03-24T12:34:04.721Z,10.90
2019-03-24T12:36:34.943Z,8.47
2019-03-24T12:39:04.452Z,11.63
2019-03-24T12:41:32.647Z,8.40
2019-03-24T12:44:00.935Z,8.10
2019-03-24T12:46:29.220Z,5.53
2019-03-24T12:48:57.620Z,7.13
2019-03-24T12:51:26.364Z,7.00
2019-03-24T12:53:54.736Z,7.33
2019-03-24T12:56:23.044Z,6.00
2019-03-24T12:58:51.429Z,9.67
2019-03-24T13:01:19.849Z,8.07
2019-03-24T13:03:48.056Z,6.17
2019-03-24T13:06:18.626Z,7.77
2019-03-24T13:08:49.275Z,10.23
2019-03-24T13:11:17.790Z,6.87
2019-03-24T13:13:46.079Z,4.87
2019-03-24T13:16:14.446Z,8.07
2019-03-24T13:18:42.700Z,5.97
2019-03-24T13:21:11.012Z,8.90
2019-03-24T13:23:39.542Z,6.37
2019-03-24T13:26:08.025Z,8.13
2019-03-24T13:28:37.970Z,7.70
2019-03-24T13:31:06.134Z,9.33
2019-03-24T13:33:34.331Z,8.43
2019-03-24T13:36:10.669Z,7.47
2019-03-24T13:38:39.109Z,7.43
2019-03-24T13:41:07.552Z,10.37
2019-03-24T13:43:35.978Z,7.43
2019-03-24T13:46:04.432Z,7.93
2019-03-24T13:48:32.738Z,9.00
2019-03-24T13:51:01.039Z,6.30
2019-03-24T13:53:29.453Z,7.53
2019-03-24T13:55:57.763Z,8.03
2019-03-24T13:58:26.020Z,7.13
2019-03-24T14:00:54.319Z,9.47
2019-03-24T14:03:22.675Z,5.90
2019-03-24T14:05:52.309Z,8.37
2019-03-24T14:08:20.675Z,7.07
2019-03-24T14:10:48.941Z,5.87
2019-03-24T14:13:17.331Z,8.07
2019-03-24T14:15:45.705Z,7.87
2019-03-24T14:18:14.258Z,7.20
2019-03-24T14:20:43.902Z,8.27
2019-03-24T14:23:14.840Z,8.47
2019-03-24T14:25:45.433Z,8.43
2019-03-24T14:28:13.824Z,7.50
2019-03-24T14:30:44.565Z,10.23
2019-03-24T14:33:13.107Z,9.47
2019-03-24T14:35:41.592Z,8.33
2019-03-24T14:38:12.722Z,7.80
2019-03-24T14:40:40.974Z,9.33
2019-03-24T14:43:09.253Z,7.17
2019-03-24T14:45:37.620Z,10.73
2019-03-24T14:48:05.897Z,8.03
2019-03-24T14:50:34.181Z,8.97
2019-03-24T14:53:02.530Z,9.07
2019-03-24T14:55:32.778Z,7.20
2019-03-24T14:58:01.247Z,9.93
2019-03-24T15:00:39.238Z,13.83
2019-03-24T15:03:07.505Z,11.50
2019-03-24T15:05:35.861Z,8.07
2019-03-24T15:08:05.374Z,9.07
2019-03-24T15:10:33.675Z,7.77
2019-03-24T15:13:01.976Z,7.60
2019-03-24T15:15:30.229Z,10.70
2019-03-24T15:17:58.606Z,8.93
2019-03-24T15:20:26.795Z,12.93
2019-03-24T15:22:55.081Z,7.07
2019-03-24T15:25:23.384Z,11.67
2019-03-24T15:27:51.744Z,8.90
2019-03-24T15:30:20.263Z,9.87
2019-03-24T15:32:48.561Z,7.93
2019-03-24T15:35:16.975Z,9.23
2019-03-24T15:37:45.434Z,7.53
2019-03-24T15:40:13.936Z,5.40
2019-03-24T15:42:42.279Z,8.27
2019-03-24T15:45:11.855Z,6.87
2019-03-24T15:47:40.186Z,7.93
2019-03-24T15:50:09.141Z,8.97
2019-03-24T15:52:37.508Z,6.30
2019-03-24T15:55:06.188Z,6.93
2019-03-24T15:57:36.532Z,6.37
2019-03-24T16:00:07.179Z,7.80
2019-03-24T16:02:35.474Z,8.83
2019-03-24T16:05:03.888Z,9.80
2019-03-24T16:07:32.165Z,6.93
2019-03-24T16:10:00.552Z,10.30
2019-03-24T16:12:28.789Z,8.33
2019-03-24T16:14:57.294Z,12.13
2019-03-24T16:17:25.811Z,11.50
2019-03-24T16:19:54.594Z,12.20
2019-03-24T16:22:22.889Z,9.30
2019-03-24T16:24:51.189Z,11.10
2019-03-24T16:27:19.524Z,9.50
2019-03-24T16:29:47.781Z,10.43
2019-03-24T16:32:16.075Z,10.37
2019-03-24T16:34:44.366Z,7.80
2019-03-24T16:37:12.640Z,8.33
2019-03-24T16:39:41.285Z,8.57
2019-03-24T16:42:09.595Z,9.47
2019-03-24T16:44:37.789Z,10.73
2019-03-24T16:47:06.129Z,9.40
2019-03-24T16:49:35.102Z,10.23
2019-03-24T16:52:03.529Z,10.87
2019-03-24T16:54:32.378Z,10.07
2019-03-24T16:57:00.710Z,8.80
2019-03-24T16:59:29.142Z,11.10
2019-03-24T17:01:57.564Z,9.13
2019-03-24T17:04:26.108Z,9.30
2019-03-24T17:06:54.600Z,8.77
2019-03-24T17:09:22.850Z,10.70
2019-03-24T17:11:53.410Z,7.80
2019-03-24T17:14:21.751Z,10.10
2019-03-24T17:16:49.976Z,9.20
2019-03-24T17:19:18.521Z,7.13
2019-03-24T17:21:50.185Z,13.80
2019-03-24T17:24:17.140Z,11.40
2019-03-24T17:26:45.590Z,13.17
2019-03-24T17:29:13.826Z,12.93
2019-03-24T17:31:42.257Z,11.70
2019-03-24T17:34:10.621Z,9.70
2019-03-24T17:36:39.052Z,9.67
2019-03-24T17:39:08.160Z,10.73
2019-03-24T17:41:36.399Z,9.03
2019-03-24T17:44:04.747Z,9.80
2019-03-24T17:46:33.064Z,10.20
2019-03-24T17:49:01.408Z,11.40
2019-03-24T17:51:29.795Z,10.60
2019-03-24T17:53:58.167Z,9.67
2019-03-24T17:56:29.233Z,9.93
2019-03-24T17:59:00.096Z,9.83
2019-03-24T18:01:28.447Z,12.87
2019-03-24T18:03:56.757Z,11.67
2019-03-24T18:06:25.268Z,12.57
2019-03-24T18:08:53.534Z,13.00
2019-03-24T18:11:21.761Z,11.23
2019-03-24T18:13:50.048Z,10.67
2019-03-24T18:16:18.355Z,10.63
2019-03-24T18:18:46.758Z,12.37
2019-03-24T18:21:16.624Z,11.13
2019-03-24T18:23:44.994Z,9.87
2019-03-24T18:26:13.201Z,12.77
2019-03-24T18:28:41.425Z,10.80
2019-03-24T18:31:09.729Z,14.30
2019-03-24T18:33:38.528Z,10.83
2019-03-24T18:36:06.829Z,12.33
2019-03-24T18:38:35.060Z,12.23
2019-03-24T18:41:03.427Z,12.30
2019-03-24T18:43:31.994Z,11.07
2019-03-24T18:46:00.312Z,14.40
2019-03-24T18:48:28.529Z,13.73
2019-03-24T18:50:56.845Z,12.23
2019-03-24T18:53:25.255Z,9.97
2019-03-24T18:55:53.623Z,13.63
2019-03-24T18:58:21.901Z,13.27
2019-03-24T19:00:55.401Z,11.20
2019-03-24T19:03:23.632Z,13.07
2019-03-24T19:05:52.010Z,14.77
2019-03-24T19:08:21.764Z,15.17
2019-03-24T19:10:50.069Z,15.47
2019-03-24T19:13:18.348Z,14.63
2019-03-24T19:15:46.776Z,12.33
2019-03-24T19:18:16.322Z,15.80
2019-03-24T19:20:44.766Z,11.13
2019-03-24T19:23:13.091Z,14.40
2019-03-24T19:25:41.407Z,12.67
2019-03-24T19:28:09.848Z,13.47
2019-03-24T19:30:39.291Z,14.03
2019-03-24T19:33:07.782Z,13.57
2019-03-24T19:35:36.242Z,14.90
2019-03-24T19:38:06.980Z,16.07
2019-03-24T19:40:36.618Z,13.43
2019-03-24T19:43:05.060Z,11.80
2019-03-24T19:45:33.428Z,15.23
2019-03-24T19:48:01.931Z,16.47
2019-03-24T19:50:30.374Z,13.13
2019-03-24T19:52:58.662Z,17.37
2019-03-24T19:55:27.066Z,16.03
2019-03-24T19:57:55.701Z,14.83
2019-03-24T20:00:24.049Z,15.37
2019-03-24T20:02:52.402Z,18.73
2019-03-24T20:05:20.797Z,15.27
2019-03-24T20:07:49.259Z,15.10
2019-03-24T20:10:17.665Z,16.60
2019-03-24T20:12:46.129Z,14.03
2019-03-24T20:15:14.668Z,17.07
2019-03-24T20:17:42.907Z,16.37
2019-03-24T20:20:11.391Z,16.97
2019-03-24T20:22:39.846Z,16.73
2019-03-24T20:25:08.341Z,15.73
2019-03-24T20:27:36.642Z,18.63
2019-03-24T20:30:06.724Z,20.10
2019-03-24T20:32:36.150Z,14.97
2019-03-24T20:35:05.363Z,15.87
2019-03-24T20:37:33.862Z,18.67
2019-03-24T20:40:02.166Z,16.13
2019-03-24T20:42:30.682Z,18.17
2019-03-24T20:44:59.129Z,21.83
2019-03-24T20:47:27.449Z,16.37
2019-03-24T20:49:55.800Z,14.90
2019-03-24T20:52:26.459Z,19.63
2019-03-24T20:54:54.721Z,17.17
2019-03-24T20:57:23.049Z,18.63
2019-03-24T20:59:52.190Z,18.43
2019-03-24T21:02:20.717Z,22.97
2019-03-24T21:04:49.013Z,18.27
2019-03-24T21:07:17.269Z,21.67
2019-03-24T21:09:46.554Z,20.30
2019-03-24T21:12:14.926Z,20.23
2019-03-24T21:14:43.199Z,22.03
2019-03-24T21:17:11.650Z,19.93
2019-03-24T21:19:39.816Z,22.37
2019-03-24T21:22:08.121Z,18.87
2019-03-24T21:24:36.412Z,24.37
2019-03-24T21:27:07.058Z,23.37
2019-03-24T21:29:34.917Z,23.53
2019-03-24T21:32:03.418Z,25.30
2019-03-24T21:34:31.776Z,23.20
2019-03-24T21:37:01.033Z,24.97
2019-03-24T21:39:29.656Z,25.93
2019-03-24T21:41:57.937Z,23.50
2019-03-24T21:44:26.267Z,29.47
2019-03-24T21:46:54.603Z,23.13
2019-03-24T21:49:22.782Z,23.43
2019-03-24T21:51:51.194Z,28.70
2019-03-24T21:54:19.542Z,32.37
2019-03-24T21:56:47.885Z,26.10
2019-03-24T21:59:17.400Z,22.87
2019-03-24T22:01:45.727Z,28.17
2019-03-24T22:04:13.966Z,26.37
2019-03-24T22:06:42.973Z,29.47
2019-03-24T22:09:15.062Z,30.73
2019-03-24T22:11:44.400Z,27.43
2019-03-24T22:14:15.607Z,26.43
2019-03-24T22:16:43.969Z,25.33
2019-03-24T22:19:12.214Z,23.47
2019-03-24T22:21:40.494Z,31.90
2019-03-24T22:24:14.969Z,31.97
2019-03-24T22:26:39.690Z,31.13
2019-03-24T22:29:07.843Z,36.00
2019-03-24T22:31:36.306Z,28.97
2019-03-24T22:34:04.738Z,30.90
2019-03-24T22:36:33.116Z,31.73
2019-03-24T22:39:01.434Z,32.80
2019-03-24T22:41:30.032Z,32.87
2019-03-24T22:43:58.311Z,32.83
2019-03-24T22:46:26.595Z,29.10
2019-03-24T22:48:54.875Z,35.73
2019-03-24T22:51:23.055Z,40.33
2019-03-24T22:53:51.248Z,42.40
2019-03-24T22:56:19.458Z,38.87
2019-03-24T22:58:47.733Z,33.93
2019-03-24T23:01:17.568Z,43.33
2019-03-24T23:03:45.789Z,41.40
2019-03-24T23:06:14.094Z,35.63
2019-03-24T23:08:46.052Z,45.70
2019-03-24T23:11:14.214Z,46.20
2019-03-24T23:13:43.902Z,43.87
2019-03-24T23:16:12.132Z,39.33
2019-03-24T23:18:40.382Z,42.63
2019-03-24T23:21:08.632Z,50.33
2019-03-24T23:23:49.480Z,54.23
2019-03-24T23:26:15.218Z,48.83
2019-03-24T23:28:43.341Z,46.97
2019-03-24T23:31:11.583Z,57.30
2019-03-24T23:33:39.810Z,55.63
2019-03-24T23:36:08.243Z,54.57
2019-03-24T23:38:36.622Z,57.23
2019-03-24T23:41:04.740Z,63.40
2019-03-24T23:43:34.558Z,65.03
2019-03-24T23:46:02.887Z,63.60
2019-03-24T23:48:31.377Z,62.30
2019-03-24T23:50:59.793Z,59.30
2019-03-24T23:53:28.021Z,60.10
2019-03-24T23:55:56.403Z,53.50
2019-03-24T23:58:24.665Z,59.93
